Record high temperature 32.7°C Record low temperature 1.2°C Record high gust 41.1 mph Record high average 25.8 mph Record daily rain 30.6 mm Record low windchill -0.2°C Record high barometer 1042.1 hPa Record low barometer 981.6 hPa
Daily high pressure 1029.6 hPa Daily low pressure 1028.8 hPa Daily low windchill 3.0°C Daily high heat index 6.3°C Daily high gust speed 8.1 mph NW Daily high average speed 5.9 mph WNW
Seaford Weather Data
LAST READING AT TIME: 7:30 AM DATE: 30 November 2020, time of next update: 8:00 am
Current WeatherOvercast and gloomy/Dry Current Temperature 4.9°C (40.8°F), Apparent temp 4.0°C, Apparent temp solar 4.0°C
Maximum Temperature (since midnight)6.3°C at: 2:27 AM Minimum Temperature (since midnight)4.8°C at: 6:31 AM
Average windspeed (ten minute)0.2 mph Wind Direction (ten minute)S (180°)
Windchill Temperature 4.9°C Maximum Gust (last hour)3.0 mph at: 6:53 AM
Maximum Gust (since midnight)8.1 mph at: 5:18 AM Maximum 1 minute average (since midnight)5.9 mph at: 5:19 AM
Rainfall (last hour)0.0 mm Rainfall (since midnight)0.0 mm (0.00 in.)---
Rainfall This month 80.2 mm (3.16 in.) Rainfall To date this year 874.6 mm (34.43 in.)
Maximum rain per minute (last hour)0.0 mm/min Maximum rain per hour (last 6 hours)0.0 mm/hour
Yesterdays rainfall 0.0 mm DewPoint 3.9°C (Wet Bulb :4.5°C )
Humidity 93 %, Humidex 3.8°C Barometer corrected to msl1028.9 hPa
Pressure change -0.1 hPa (last hour) Trend (last hour)STEADY
Pressure change (last 12 hours)-0.3 hPa Pressure change (last 6 hours)-0.4 hPa
Current 00:00 hours of sunshine today, current sky: Overcast and gloomy
Sunshine hours for the year: 637:07 hrs Sunshine hours for the month: 00:00 hrs
Current evapotranspiration rate 0.1 mm per day. Yesterday's reading 0.3



Weather report/warning/Metars

Shoreham Airport, United Kingdom (EGKA) 50-50N 000-17W 0M
Nov 29, 2020 - 12:50 PM EST / 2020.11.29 1750 UTC
Wind: from the NNE (020 degrees) at 6 MPH (5 KT):0
Visibility: 4 mile(s):0
Sky conditions: mostly cloudy
Temperature: 44 F (7 C)
Dew Point: 42 F (6 C)
Relative Humidity: 93%
Pressure (altimeter): 30.30 in. Hg (1026 hPa)
ob: EGKA 291750Z 02005KT 7000 BKN009 07/06 Q1026
cycle: 18
Yeovilton, United Kingdom (EGDY) 51-00N 002-38W 0M
Nov 30, 2020 - 01:50 AM EST / 2020.11.30 0650 UTC
Wind: from the S (190 degrees) at 5 MPH (4 KT):0
Visibility: less than 1 mile:0
Sky conditions: obscured
Weather: fog
Temperature: 37 F (3 C)
Dew Point: 37 F (3 C)
Relative Humidity: 100%
Pressure (altimeter): 30.33 in. Hg (1027 hPa)
ob: EGDY 300650Z 19004KT 0100 FG VV/// 03/03 Q1027 RED
cycle: 7
Luton Airport , United Kingdom (EGGW) 51-52N 000-22W
Nov 30, 2020 - 01:50 AM EST / 2020.11.30 0650 UTC
Wind: from the WSW (250 degrees) at 10 MPH (9 KT):0
Visibility: less than 1 mile:0
Sky conditions: obscured
Weather: fog
Temperature: 41 F (5 C)
Dew Point: 39 F (4 C)
Relative Humidity: 93%
Pressure (altimeter): 30.27 in. Hg (1025 hPa)
ob: EGGW 300650Z AUTO 25009KT 0150 R25/0550 FG VV/// 05/04 Q1025
cycle: 7
Bournemouth Airport, United Kingdom (EGHH) 50-47N 001-50W 0M
Nov 29, 2020 - 02:50 PM EST / 2020.11.29 1950 UTC
Wind: from the NNW (340 degrees) at 2 MPH (2 KT):0
Visibility: less than 1 mile:0
Sky conditions: overcast
Weather: fog
Temperature: 42 F (6 C)
Dew Point: 42 F (6 C)
Relative Humidity: 100%
Pressure (altimeter): 30.33 in. Hg (1027 hPa)
ob: EGHH 291950Z 34002KT 0500 FG OVC001 06/06 Q1027
cycle: 20
Guernsey Airport, United Kingdom (EGJB) 49-26N 002-36W 0M
Nov 30, 2020 - 01:50 AM EST / 2020.11.30 0650 UTC
Wind: from the W (270 degrees) at 2 MPH (2 KT):0
Visibility: 4 mile(s):0
Sky conditions: partly cloudy
Weather: shallow fog
Temperature: 46 F (8 C)
Dew Point: 46 F (8 C)
Relative Humidity: 100%
Pressure (altimeter): 30.36 in. Hg (1028 hPa)
ob: EGJB 300650Z 27002KT 8000 R27/1200 MIFG SCT007 08/08 Q1028
cycle: 7
Jersey Airport, United Kingdom (EGJJ) 49-13N 002-12W 0M
Nov 30, 2020 - 01:50 AM EST / 2020.11.30 0650 UTC
Wind: from the SE (130 degrees) at 1 MPH (1 KT):0
Visibility: 4 mile(s):0
Sky conditions: mostly clear
Weather: partial fog
Temperature: 42 F (6 C)
Dew Point: 42 F (6 C)
Relative Humidity: 100%
Pressure (altimeter): 30.36 in. Hg (1028 hPa)
ob: EGJJ 300650Z 13001KT 8000 0900E R26/1500U PRFG FEW000 06/06 Q1028
cycle: 7
London / Gatwick Airport, United Kingdom (EGKK) 51-09N 000-11W 0M
Nov 30, 2020 - 01:50 AM EST / 2020.11.30 0650 UTC
Wind: from the WSW (240 degrees) at 5 MPH (4 KT) (direction variable):0
Visibility: less than 1 mile:0
Sky conditions: mostly cloudy
Weather: fog
Temperature: 41 F (5 C)
Dew Point: 41 F (5 C)
Relative Humidity: 100%
Pressure (altimeter): 30.30 in. Hg (1026 hPa)
ob: EGKK 300650Z 24004KT 180V270 0300 R26L/0500 FG BKN000 05/05 Q1026
cycle: 7
London / Heathrow Airport, United Kingdom (EGLL) 51-29N 000-27W 0M
Nov 30, 2020 - 01:50 AM EST / 2020.11.30 0650 UTC
Wind: from the WSW (240 degrees) at 7 MPH (6 KT) (direction variable):0
Visibility: less than 1 mile:0
Sky conditions: overcast
Weather: fog
Temperature: 41 F (5 C)
Dew Point: 39 F (4 C)
Relative Humidity: 93%
Pressure (altimeter): 30.30 in. Hg (1026 hPa)
ob: EGLL 300650Z 24006KT 210V280 0800 R27R/P1500 FG OVC001 05/04 Q1026
cycle: 7
Southend-On-Sea , United Kingdom (EGMC) 51-34N 000-42E
Nov 30, 2020 - 01:50 AM EST / 2020.11.30 0650 UTC
Wind: from the WSW (250 degrees) at 8 MPH (7 KT):0
Visibility: 3 mile(s):0
Sky conditions: mostly cloudy
Weather: mist
Temperature: 44 F (7 C)
Dew Point: 42 F (6 C)
Relative Humidity: 93%
Pressure (altimeter): 30.27 in. Hg (1025 hPa)
ob: EGMC 300650Z 25007KT 5000 BR BKN004 07/06 Q1025
cycle: 7
Lydd Airport , United Kingdom (EGMD) 50-57N 000-56E
Nov 30, 2020 - 01:50 AM EST / 2020.11.30 0650 UTC
Wind: from the WSW (250 degrees) at 6 MPH (5 KT):0
Visibility: 2 mile(s):0
Sky conditions: overcast
Weather: mist
Temperature: 42 F (6 C)
Dew Point: 42 F (6 C)
Relative Humidity: 100%
Pressure (altimeter): 30.30 in. Hg (1026 hPa)
ob: EGMD 300650Z AUTO 25005KT 4000 BR OVC003/// 06/06 Q1026
cycle: 7
Glasgow Airport, United Kingdom (EGPF) 55-52N 004-26W 0M
Nov 30, 2020 - 01:50 AM EST / 2020.11.30 0650 UTC
Wind: from the SW (230 degrees) at 23 MPH (20 KT):0
Visibility: 3 mile(s):0
Sky conditions: mostly cloudy
Weather: light rain
Temperature: 48 F (9 C)
Dew Point: 44 F (7 C)
Relative Humidity: 87%
Pressure (altimeter): 30.00 in. Hg (1016 hPa)
ob: EGPF 300650Z AUTO 23020KT 5000 -RA SCT017 BKN022 09/07 Q1016
cycle: 7
Stansted Airport, United Kingdom (EGSS) 51-53N 000-14E 0M
Nov 30, 2020 - 01:50 AM EST / 2020.11.30 0650 UTC
Wind: from the SW (230 degrees) at 5 MPH (4 KT):0
Visibility: less than 1 mile:0
Sky conditions: obscured
Weather: fog
Temperature: 41 F (5 C)
Dew Point: 41 F (5 C)
Relative Humidity: 100%
Pressure (altimeter): 30.27 in. Hg (1025 hPa)
ob: EGSS 300650Z AUTO 23004KT 0150 R22/0450 FG VV/// 05/05 Q1025
cycle: 7
Brize Norton, United Kingdom (EGVN) 51-45N 001-35W 0M
Nov 30, 2020 - 01:50 AM EST / 2020.11.30 0650 UTC
Wind: from the SW (230 degrees) at 3 MPH (3 KT):0
Visibility: less than 1 mile:0
Sky conditions: overcast
Weather: fog
Temperature: 41 F (5 C)
Dew Point: 41 F (5 C)
Relative Humidity: 100%
Pressure (altimeter): 30.27 in. Hg (1025 hPa)
ob: EGVN 300650Z 23003KT 0400 FG OVC001 05/05 Q1025 NOSIG RMK RED RED
cycle: 7



The data is logged at two minute intervals, but there is data recorded every minute. On the graph, the Blue line represents the average windspeed, the Red line is the maximum gust for that interval, and the Green line is what the wind has dropped off to in the same interval. Fuschia is the Barometer, and the dew point and Blue is humidity.

Use the RELOAD facility on your browser to retrieve the latest data.

Click here for a daily update of the averages/extremes to date for the month

Check *Live* Weather

Created by "Weather Display" software version 10.37S at this start time/date 12:08:01 23/10/2020